Time;durP1;ratioP1;P1;durP2;ratioP2;P2;SDS_P1;SDS_P2;PMS_P1;PMS_P2;Temp;Humidity;BMP_temperature;BMP_pressure;BME280_temperature;BME280_humidity;BME280_pressure;Samples;Min_cycle;Max_cycle;Signal;HPM_P1;HPM_P2
2022/07/19 00:01:28;;;;;;;2.22;2.02;;;;;;;13.32;75.85;100093.80;1813712;79;21012;-77
2022/07/19 00:03:56;;;;;;;3.83;1.92;;;;;;;13.29;75.79;100093.87;1805125;79;21052;-77
2022/07/19 00:06:23;;;;;;;3.10;2.10;;;;;;;13.29;75.85;100092.55;1805218;79;21036;-77
2022/07/19 00:08:50;;;;;;;2.40;1.87;;;;;;;13.29;75.83;100092.55;1813372;79;21046;-77
2022/07/19 00:11:17;;;;;;;2.92;1.95;;;;;;;13.26;75.96;100090.48;1813312;79;21097;-76
2022/07/19 00:13:44;;;;;;;2.98;1.77;;;;;;;13.27;76.04;100090.42;1804957;79;21058;-76
2022/07/19 00:16:12;;;;;;;1.87;1.70;;;;;;;13.30;75.98;100089.00;1813678;78;21015;-77
2022/07/19 00:18:39;;;;;;;2.83;1.67;;;;;;;13.31;75.85;100089.85;1805071;79;21083;-76
2022/07/19 00:21:06;;;;;;;5.78;1.72;;;;;;;13.30;75.73;100088.14;1804988;79;21618;-77
2022/07/19 00:23:32;;;;;;;2.10;1.47;;;;;;;13.30;75.62;100086.36;1804782;79;21116;-76
2022/07/19 00:26:00;;;;;;;1.90;1.75;;;;;;;13.26;75.63;100082.08;1805168;78;21098;-77
2022/07/19 00:28:27;;;;;;;3.58;1.95;;;;;;;13.22;75.71;100085.77;1791704;79;21052;-77
2022/07/19 00:30:54;;;;;;;2.50;1.70;;;;;;;13.19;76.08;100089.84;1805934;78;21570;-77
2022/07/19 00:33:22;;;;;;;1.57;1.47;;;;;;;13.16;76.11;100084.22;1797681;79;20988;-76
2022/07/19 00:35:49;;;;;;;2.92;1.90;;;;;;;13.19;76.21;100083.23;1798076;79;21147;-77
2022/07/19 00:38:16;;;;;;;1.90;1.67;;;;;;;13.22;76.21;100083.12;1797448;79;21023;-77
2022/07/19 00:40:43;;;;;;;3.40;1.72;;;;;;;13.25;76.27;100088.77;1709703;83;21607;-76
2022/07/19 00:43:11;;;;;;;1.60;1.50;;;;;;;13.27;76.20;100084.28;1730566;82;21017;-77
2022/07/19 00:45:38;;;;;;;2.72;1.65;;;;;;;13.29;76.18;100083.77;1730804;82;20964;-77
2022/07/19 00:48:05;;;;;;;3.00;1.70;;;;;;;13.30;76.09;100085.50;1730926;82;21108;-77
2022/07/19 00:50:33;;;;;;;4.25;1.60;;;;;;;13.31;76.05;100082.77;1730633;82;21556;-77
2022/07/19 00:53:02;;;;;;;2.77;1.37;;;;;;;13.34;76.05;100082.70;1730602;82;21483;-77
2022/07/19 00:55:31;;;;;;;2.02;1.70;;;;;;;13.35;75.88;100083.11;1730703;82;21111;-77
2022/07/19 00:57:58;;;;;;;3.08;1.50;;;;;;;13.36;75.99;100078.24;1730873;82;21126;-77
2022/07/19 01:00:25;;;;;;;1.50;1.22;;;;;;;13.37;75.92;100082.59;1730601;82;21103;-77
2022/07/19 01:02:53;;;;;;;2.30;1.50;;;;;;;13.37;75.96;100081.27;1730557;82;21063;-77
2022/07/19 01:05:20;;;;;;;2.75;1.70;;;;;;;13.38;76.00;100072.88;1730904;82;21076;-77
2022/07/19 01:07:46;;;;;;;1.60;1.50;;;;;;;13.40;76.03;100075.45;1730651;82;21107;-76
2022/07/19 01:10:14;;;;;;;1.47;1.25;;;;;;;13.39;75.84;100074.61;1731130;82;21016;-77
2022/07/19 01:12:41;;;;;;;5.67;1.45;;;;;;;13.39;75.84;100071.96;1730526;82;21135;-77
2022/07/19 01:15:21;;;;;;;4.87;1.55;;;;;;;13.38;75.88;100071.11;1730906;82;21071;-76
2022/07/19 01:17:49;;;;;;;1.40;1.30;;;;;;;13.37;75.71;100065.41;1730982;82;21098;-77
2022/07/19 01:20:16;;;;;;;1.65;1.27;;;;;;;13.38;75.94;100068.47;1730551;82;21060;-77
2022/07/19 01:22:43;;;;;;;8.83;1.35;;;;;;;13.38;75.90;100070.23;1730844;82;21151;-77
2022/07/19 01:25:10;;;;;;;1.50;1.40;;;;;;;13.35;75.95;100063.29;1730574;82;22281;-76
2022/07/19 01:27:44;;;;;;;3.12;1.35;;;;;;;13.33;75.83;100066.89;1733587;81;21096;-76
2022/07/19 01:30:17;;;;;;;6.08;1.80;;;;;;;13.32;75.97;100063.40;1758612;81;21064;-76
2022/07/19 01:32:45;;;;;;;2.42;1.50;;;;;;;13.30;75.90;100061.25;1758479;81;21578;-77
2022/07/19 01:35:12;;;;;;;2.45;1.32;;;;;;;13.31;75.95;100066.91;1758266;81;21127;-77
2022/07/19 01:37:39;;;;;;;2.80;1.70;;;;;;;13.28;76.05;100065.73;1758688;81;21109;-76
2022/07/19 01:40:08;;;;;;;4.00;1.40;;;;;;;13.24;76.12;100063.25;1758413;81;20984;-77
2022/07/19 01:42:35;;;;;;;3.62;2.02;;;;;;;13.20;76.17;100067.33;1758272;81;21001;-77
2022/07/19 01:45:05;;;;;;;3.85;1.50;;;;;;;13.19;75.99;100064.73;1758616;81;21115;-77
2022/07/19 01:47:33;;;;;;;2.95;1.65;;;;;;;13.20;75.93;100062.04;1758323;81;21001;-76
2022/07/19 01:49:59;;;;;;;4.58;1.60;;;;;;;13.23;75.77;100066.37;1758646;81;21560;-77
2022/07/19 01:52:27;;;;;;;3.17;1.72;;;;;;;13.26;75.61;100066.23;1758303;81;21087;-76
2022/07/19 01:54:54;;;;;;;4.70;1.57;;;;;;;13.29;75.50;100070.08;1758265;81;21131;-76
2022/07/19 01:57:21;;;;;;;1.70;1.60;;;;;;;13.30;75.53;100067.86;1758372;81;21110;-77
2022/07/19 01:59:48;;;;;;;2.55;1.67;;;;;;;13.32;75.37;100066.05;1758364;81;21087;-76
2022/07/19 02:02:15;;;;;;;2.27;1.27;;;;;;;13.32;75.36;100068.69;1758340;81;21571;-76
2022/07/19 02:04:42;;;;;;;2.37;1.80;;;;;;;13.32;75.35;100066.05;1758526;81;21159;-77
2022/07/19 02:07:10;;;;;;;1.17;1.07;;;;;;;13.34;75.45;100065.98;1758380;81;21005;-77
2022/07/19 02:09:37;;;;;;;1.42;1.32;;;;;;;13.38;75.28;100064.50;1758679;81;21135;-77
2022/07/19 02:12:06;;;;;;;2.30;1.30;;;;;;;13.40;75.17;100070.17;1758220;81;21017;-77
2022/07/19 02:14:33;;;;;;;4.80;1.20;;;;;;;13.40;75.00;100066.20;1758343;81;21611;-77
2022/07/19 02:17:00;;;;;;;1.40;1.30;;;;;;;13.40;75.02;100072.81;1758374;81;21040;-77
2022/07/19 02:19:27;;;;;;;2.30;1.15;;;;;;;13.42;75.01;100073.64;1758410;81;21079;-77
2022/07/19 02:21:54;;;;;;;5.97;1.20;;;;;;;13.44;75.04;100071.80;1758324;81;21586;-77
2022/07/19 02:24:21;;;;;;;3.55;1.50;;;;;;;13.46;75.07;100066.84;1758468;81;21162;-76
2022/07/19 02:26:47;;;;;;;2.75;1.37;;;;;;;13.49;74.98;100069.84;1758562;81;21087;-76
2022/07/19 02:29:14;;;;;;;1.52;1.42;;;;;;;13.49;75.05;100069.84;1758472;81;21587;-75
2022/07/19 02:31:41;;;;;;;1.75;1.35;;;;;;;13.46;75.15;100075.23;1758531;81;21004;-76
2022/07/19 02:34:08;;;;;;;2.67;1.30;;;;;;;13.45;75.21;100069.54;1758338;81;21060;-76
2022/07/19 02:36:35;;;;;;;1.42;1.32;;;;;;;13.46;75.28;100073.92;1747703;81;21597;-76
2022/07/19 02:39:02;;;;;;;2.72;1.70;;;;;;;13.47;75.24;100078.30;1728625;83;21136;-76
2022/07/19 02:41:31;;;;;;;3.42;1.60;;;;;;;13.50;75.33;100071.55;1728107;83;21111;-75
2022/07/19 02:43:58;;;;;;;7.00;1.57;;;;;;;13.53;75.32;100070.12;1707040;82;21074;-77
2022/07/19 02:46:24;;;;;;;5.03;1.70;;;;;;;13.55;75.07;100068.30;1730491;82;21306;-76
2022/07/19 02:48:51;;;;;;;5.17;1.77;;;;;;;13.57;74.93;100062.48;1707103;84;21050;-77
2022/07/19 02:51:18;;;;;;;7.55;2.00;;;;;;;13.59;74.69;100057.14;1730639;82;21055;-77
2022/07/19 02:53:45;;;;;;;2.72;1.90;;;;;;;13.62;74.70;100055.23;1706921;84;21310;-76
2022/07/19 02:56:12;;;;;;;1.60;1.50;;;;;;;13.65;74.67;100053.80;1730832;82;21086;-76
2022/07/19 02:58:39;;;;;;;2.40;1.62;;;;;;;13.69;74.63;100055.39;1706783;84;21608;-77
2022/07/19 03:01:06;;;;;;;2.90;1.50;;;;;;;13.71;74.60;100056.19;1730261;82;21122;-76
2022/07/19 03:03:43;;;;;;;1.85;1.60;;;;;;;13.71;74.54;100057.51;1706748;84;21086;-76
2022/07/19 03:06:10;;;;;;;1.60;1.50;;;;;;;13.70;74.42;100061.09;1711554;82;21009;-77
2022/07/19 03:08:38;;;;;;;2.92;1.45;;;;;;;13.70;74.59;100058.45;1707074;84;21141;-77
2022/07/19 03:11:05;;;;;;;4.05;1.47;;;;;;;13.72;74.78;100063.68;1730273;82;21059;-76
2022/07/19 03:13:32;;;;;;;2.75;1.80;;;;;;;13.72;74.72;100062.36;1706934;84;21585;-77
2022/07/19 03:15:59;;;;;;;2.40;1.70;;;;;;;13.72;74.88;100057.07;1730287;82;21115;-76
2022/07/19 03:18:26;;;;;;;3.30;2.10;;;;;;;13.71;74.89;100054.86;1707076;84;21114;-76
2022/07/19 03:20:55;;;;;;;3.87;1.70;;;;;;;13.73;74.86;100053.05;1730220;82;21527;-77
2022/07/19 03:23:22;;;;;;;2.17;1.80;;;;;;;13.75;74.74;100058.25;1725773;81;21604;-77
2022/07/19 03:25:49;;;;;;;3.40;1.90;;;;;;;13.78;74.75;100054.63;1760526;81;21059;-76
2022/07/19 03:28:15;;;;;;;2.47;1.80;;;;;;;13.81;74.71;100051.41;1759027;80;21119;-76
2022/07/19 03:30:44;;;;;;;2.20;1.72;;;;;;;13.86;74.71;100045.47;1758224;81;21122;-76
2022/07/19 03:33:15;;;;;;;2.95;1.50;;;;;;;13.91;74.76;100042.65;1758574;81;21103;-77
2022/07/19 03:35:44;;;;;;;2.75;1.82;;;;;;;13.94;75.06;100049.15;1758572;80;21034;-76
2022/07/19 03:38:11;;;;;;;4.83;1.60;;;;;;;13.94;74.89;100048.67;1758533;81;21343;-77
2022/07/19 03:40:38;;;;;;;3.17;1.90;;;;;;;13.97;74.91;100047.70;1758526;81;21113;-76
2022/07/19 03:43:06;;;;;;;2.98;1.50;;;;;;;13.98;74.69;100050.73;1758391;81;21052;-76
2022/07/19 03:45:33;;;;;;;2.72;1.60;;;;;;;14.01;74.83;100053.27;1758542;80;21035;-76
2022/07/19 03:48:02;;;;;;;3.58;1.45;;;;;;;14.02;75.07;100054.99;1758583;80;21508;-77
2022/07/19 03:50:29;;;;;;;5.00;1.70;;;;;;;14.03;75.17;100047.44;1758436;80;21071;-77
2022/07/19 03:52:56;;;;;;;2.30;1.80;;;;;;;14.06;75.41;100049.97;1758493;81;21022;-77
2022/07/19 03:55:23;;;;;;;5.45;1.50;;;;;;;14.10;75.45;100054.23;1758327;81;21560;-77
2022/07/19 03:57:50;;;;;;;2.72;1.70;;;;;;;14.15;75.21;100053.16;1758447;81;21048;-77
2022/07/19 04:00:17;;;;;;;2.75;1.50;;;;;;;14.21;75.68;100048.95;1758419;80;21123;-77
2022/07/19 04:02:44;;;;;;;4.15;1.75;;;;;;;14.27;75.74;100052.66;1758697;81;21046;-76
2022/07/19 04:05:11;;;;;;;8.38;2.25;;;;;;;14.34;75.79;100060.76;1758521;80;21586;-76
2022/07/19 04:07:40;;;;;;;3.55;1.90;;;;;;;14.38;75.74;100054.40;1758453;80;21059;-77
2022/07/19 04:10:08;;;;;;;4.75;2.15;;;;;;;14.42;75.73;100050.69;1758265;81;22064;-77
2022/07/19 04:12:35;;;;;;;4.72;1.90;;;;;;;14.49;75.47;100052.17;1758592;81;20921;-77
2022/07/19 04:15:02;;;;;;;2.00;1.57;;;;;;;14.55;75.37;100056.81;1758751;81;21051;-77
2022/07/19 04:17:29;;;;;;;6.67;1.80;;;;;;;14.57;75.23;100053.63;1758687;81;21108;-76
2022/07/19 04:19:56;;;;;;;9.98;2.10;;;;;;;14.63;75.31;100050.76;1758453;81;21060;-76
2022/07/19 04:22:24;;;;;;;6.28;1.70;;;;;;;14.66;75.19;100049.31;1758859;80;21016;-77
2022/07/19 04:24:51;;;;;;;6.10;2.10;;;;;;;14.70;75.37;100045.58;1758397;81;21639;-77
2022/07/19 04:27:18;;;;;;;5.65;2.02;;;;;;;14.76;75.37;100053.72;1758812;81;21135;-76
2022/07/19 04:29:45;;;;;;;3.15;1.62;;;;;;;14.81;75.31;100045.98;1758255;81;21126;-77
2022/07/19 04:32:13;;;;;;;4.45;1.98;;;;;;;14.86;75.05;100049.30;1757869;81;21082;-77
2022/07/19 04:34:39;;;;;;;2.90;2.10;;;;;;;14.91;74.85;100045.56;1757886;81;21017;-76
2022/07/19 04:37:06;;;;;;;3.92;2.15;;;;;;;14.95;74.65;100045.38;1758052;80;21092;-77
2022/07/19 04:39:33;;;;;;;6.08;2.83;;;;;;;14.99;74.61;100046.95;1758370;81;21005;-76
2022/07/19 04:42:01;;;;;;;3.17;2.47;;;;;;;15.04;74.47;100046.75;1757942;81;22635;-77
2022/07/19 04:44:28;;;;;;;6.72;2.12;;;;;;;15.09;74.58;100050.05;1745955;80;21004;-76
2022/07/19 04:46:54;;;;;;;7.05;1.80;;;;;;;15.13;74.54;100056.95;1685527;85;21118;-77
2022/07/19 04:49:21;;;;;;;7.33;2.62;;;;;;;15.19;74.80;100056.66;1685594;84;21099;-76
2022/07/19 04:51:48;;;;;;;6.78;2.50;;;;;;;15.25;74.71;100056.87;1722605;83;21175;-76
2022/07/19 04:54:15;;;;;;;5.97;2.37;;;;;;;15.29;74.28;100053.13;1753234;81;21142;-77
2022/07/19 04:56:43;;;;;;;6.20;2.35;;;;;;;15.38;74.09;100060.69;1752911;81;21422;-77
2022/07/19 04:59:09;;;;;;;6.75;2.20;;;;;;;15.45;74.04;100065.23;1752621;81;21125;-77
2022/07/19 05:01:36;;;;;;;3.60;1.82;;;;;;;15.53;74.05;100063.54;1753016;81;21099;-77
2022/07/19 05:04:03;;;;;;;10.13;2.12;;;;;;;15.58;73.77;100069.05;1752827;81;21069;-77
2022/07/19 05:06:31;;;;;;;6.85;2.12;;;;;;;15.66;73.59;100065.16;1752475;81;21153;-77
2022/07/19 05:08:57;;;;;;;1.98;1.72;;;;;;;15.74;73.08;100070.50;1752688;81;21047;-77
2022/07/19 05:11:25;;;;;;;3.00;1.50;;;;;;;15.86;73.02;100070.42;1751985;81;21070;-77
2022/07/19 05:13:52;;;;;;;3.15;1.90;;;;;;;15.98;72.51;100071.14;1685199;85;21112;-76
2022/07/19 05:16:20;;;;;;;4.53;2.47;;;;;;;16.06;71.36;100065.95;1685432;85;21114;-77
2022/07/19 05:18:48;;;;;;;3.70;1.77;;;;;;;16.12;70.49;100066.52;1727460;81;21541;-77
2022/07/19 05:21:15;;;;;;;2.60;1.75;;;;;;;16.19;69.71;100072.83;1784048;80;21629;-77
2022/07/19 05:23:42;;;;;;;9.13;1.90;;;;;;;16.20;69.54;100068.78;1783996;80;21028;-77
2022/07/19 05:26:10;;;;;;;2.40;1.65;;;;;;;16.25;69.93;100072.06;1783341;80;21141;-77
2022/07/19 05:28:37;;;;;;;3.42;1.75;;;;;;;16.30;70.16;100072.70;1784208;80;21324;-76
2022/07/19 05:31:04;;;;;;;4.65;1.62;;;;;;;16.35;69.64;100073.33;1794318;79;21075;-77
2022/07/19 05:33:32;;;;;;;2.10;1.55;;;;;;;16.42;69.20;100074.36;1813305;78;21479;-77
2022/07/19 05:35:58;;;;;;;1.95;1.70;;;;;;;16.47;69.12;100066.55;1813475;79;21098;-76
2022/07/19 05:38:26;;;;;;;3.12;2.00;;;;;;;16.51;68.91;100069.93;1813542;78;21035;-77
2022/07/19 05:40:52;;;;;;;3.50;2.10;;;;;;;16.55;69.13;100068.83;1813335;79;21114;-77
2022/07/19 05:43:19;;;;;;;4.55;2.12;;;;;;;16.62;69.63;100077.34;1813493;79;21552;-77
2022/07/19 05:45:46;;;;;;;5.00;1.98;;;;;;;16.69;69.21;100076.09;1813274;79;21285;-77
2022/07/19 05:48:13;;;;;;;4.60;2.05;;;;;;;16.72;69.02;100073.28;1813324;79;21004;-77
2022/07/19 05:50:40;;;;;;;2.25;1.90;;;;;;;16.74;69.03;100075.38;1813563;79;21019;-77
2022/07/19 05:53:07;;;;;;;4.17;1.70;;;;;;;16.80;69.24;100071.57;1813598;79;21011;-76
2022/07/19 05:55:35;;;;;;;9.43;2.00;;;;;;;16.90;69.84;100072.36;1813632;79;21126;-76
2022/07/19 05:58:02;;;;;;;3.12;1.90;;;;;;;17.03;70.13;100072.59;1813792;79;20972;-76
2022/07/19 06:00:29;;;;;;;3.92;1.95;;;;;;;17.15;69.26;100066.25;1813387;79;21035;-77
2022/07/19 06:02:56;;;;;;;2.42;1.75;;;;;;;17.23;68.97;100066.67;1813452;79;20980;-76
2022/07/19 06:05:24;;;;;;;9.55;2.25;;;;;;;17.31;68.39;100071.11;1813566;78;21063;-77
2022/07/19 06:07:52;;;;;;;4.53;2.42;;;;;;;17.38;68.94;100066.32;1813625;79;21105;-77
2022/07/19 06:10:19;;;;;;;4.47;1.75;;;;;;;17.43;68.73;100060.28;1813315;78;21067;-77
2022/07/19 06:12:47;;;;;;;4.40;1.67;;;;;;;17.51;68.03;100066.52;1813527;78;21067;-77
2022/07/19 06:15:14;;;;;;;5.28;1.92;;;;;;;17.58;68.34;100067.90;1813648;79;21101;-77
2022/07/19 06:17:41;;;;;;;9.38;1.90;;;;;;;17.64;68.44;100059.59;1813600;79;21070;-76
2022/07/19 06:20:11;;;;;;;2.80;2.00;;;;;;;17.69;67.71;100057.53;1813846;78;20989;-77
2022/07/19 06:22:39;;;;;;;3.30;1.70;;;;;;;17.74;67.65;100050.14;1813497;78;21011;-76
2022/07/19 06:25:07;;;;;;;2.77;1.80;;;;;;;17.81;67.84;100052.84;1813600;79;21099;-77
2022/07/19 06:27:35;;;;;;;6.45;1.90;;;;;;;17.86;67.57;100053.92;1813514;79;21090;-76
2022/07/19 06:30:02;;;;;;;3.10;1.60;;;;;;;17.89;67.50;100047.62;1813905;78;21114;-77
2022/07/19 06:32:29;;;;;;;7.00;1.80;;;;;;;17.92;67.59;100049.63;1827354;77;21100;-77
2022/07/19 06:34:56;;;;;;;3.33;1.95;;;;;;;18.00;68.21;100042.52;1830322;77;21641;-77
2022/07/19 06:37:23;;;;;;;6.12;1.92;;;;;;;18.07;67.72;100038.58;1830596;78;21055;-76
2022/07/19 06:39:51;;;;;;;5.72;1.70;;;;;;;18.12;67.50;100034.30;1830421;78;21128;-77
2022/07/19 06:42:19;;;;;;;3.98;1.80;;;;;;;18.16;66.47;100039.36;1830236;78;20988;-76
2022/07/19 06:44:45;;;;;;;4.00;1.92;;;;;;;18.17;66.07;100039.77;1830438;78;21702;-77
2022/07/19 06:47:12;;;;;;;3.02;1.98;;;;;;;18.23;66.30;100038.53;1794701;78;21050;-76
2022/07/19 06:49:39;;;;;;;2.98;2.08;;;;;;;18.28;66.42;100042.27;1781823;80;21007;-77
2022/07/19 06:52:06;;;;;;;5.92;2.25;;;;;;;18.28;65.61;100034.28;1781251;80;21503;-76
2022/07/19 06:54:33;;;;;;;11.10;3.08;;;;;;;18.30;65.89;100031.05;1781869;80;21034;-77
2022/07/19 06:57:01;;;;;;;8.50;3.52;;;;;;;18.33;66.09;100032.20;1781532;80;21533;-76
2022/07/19 06:59:28;;;;;;;14.15;4.05;;;;;;;18.36;66.03;100038.20;1781461;80;21075;-76
2022/07/19 07:01:55;;;;;;;12.37;3.85;;;;;;;18.38;66.09;100036.78;1781219;80;21533;-76
2022/07/19 07:04:22;;;;;;;9.33;3.92;;;;;;;18.39;65.83;100042.48;1781541;80;21069;-77
2022/07/19 07:06:49;;;;;;;15.45;4.55;;;;;;;18.38;65.69;100040.30;1781554;80;21025;-76
2022/07/19 07:09:16;;;;;;;15.53;4.37;;;;;;;18.41;65.91;100039.27;1781431;80;21778;-77
2022/07/19 07:11:43;;;;;;;7.87;3.22;;;;;;;18.46;66.08;100042.52;1781697;80;21041;-76
2022/07/19 07:14:10;;;;;;;9.00;3.22;;;;;;;18.46;65.21;100041.20;1781537;80;21109;-76
2022/07/19 07:16:37;;;;;;;5.10;2.72;;;;;;;18.42;64.99;100046.30;1808280;78;21488;-75
2022/07/19 07:19:04;;;;;;;10.80;2.70;;;;;;;18.41;65.58;100051.27;1819289;78;21028;-77
2022/07/19 07:21:34;;;;;;;13.20;2.12;;;;;;;18.44;65.64;100054.20;1819352;78;21106;-77
2022/07/19 07:24:00;;;;;;;10.95;2.60;;;;;;;18.46;65.41;100061.63;1818933;78;21052;-77
2022/07/19 07:26:27;;;;;;;3.95;1.90;;;;;;;18.46;65.40;100060.30;1819289;78;21055;-76
2022/07/19 07:28:55;;;;;;;12.05;2.45;;;;;;;18.46;65.86;100059.84;1819123;78;21064;-77
2022/07/19 07:31:22;;;;;;;4.50;2.12;;;;;;;18.48;66.51;100071.75;1820001;78;21102;-75
2022/07/19 07:33:49;;;;;;;12.82;1.77;;;;;;;18.53;66.08;100065.19;1824814;78;21102;-76
2022/07/19 07:36:17;;;;;;;3.05;1.85;;;;;;;18.54;65.73;100070.03;1824540;78;21053;-77
2022/07/19 07:38:44;;;;;;;2.58;1.55;;;;;;;18.53;65.11;100073.19;1825075;78;21060;-77
2022/07/19 07:41:10;;;;;;;2.62;1.67;;;;;;;18.52;64.82;100076.78;1824763;78;21570;-77
2022/07/19 07:43:38;;;;;;;6.58;1.75;;;;;;;18.52;64.21;100076.78;1824814;78;21059;-77
2022/07/19 07:46:05;;;;;;;7.58;2.08;;;;;;;18.46;64.12;100077.16;1825035;78;21081;-77
2022/07/19 07:48:33;;;;;;;8.15;2.20;;;;;;;18.40;64.18;100073.52;1824781;78;21039;-76
2022/07/19 07:51:00;;;;;;;2.42;2.22;;;;;;;18.36;65.19;100086.64;1824908;78;21094;-77
2022/07/19 07:53:26;;;;;;;6.45;2.30;;;;;;;18.30;65.43;100080.33;1824698;78;21103;-76
2022/07/19 07:55:53;;;;;;;10.35;2.62;;;;;;;18.26;65.98;100085.46;1825182;78;21008;-76
2022/07/19 07:58:20;;;;;;;3.45;1.90;;;;;;;18.22;66.21;100083.90;1824841;78;21092;-77
2022/07/19 08:00:48;;;;;;;7.35;2.20;;;;;;;18.18;66.50;100088.55;1824749;78;20992;-77
2022/07/19 08:03:17;;;;;;;6.25;1.57;;;;;;;18.10;66.81;100089.45;1824648;78;21044;-76
2022/07/19 08:05:47;;;;;;;5.75;2.25;;;;;;;18.03;67.47;100087.61;1824801;78;21060;-77
2022/07/19 08:08:15;;;;;;;4.25;2.00;;;;;;;18.04;68.48;100081.80;1824663;78;21542;-77
2022/07/19 08:10:42;;;;;;;6.40;2.30;;;;;;;18.08;69.52;100082.88;1824745;78;21542;-77
2022/07/19 08:13:09;;;;;;;3.35;2.00;;;;;;;18.14;69.98;100085.66;1824859;78;21540;-77
2022/07/19 08:15:38;;;;;;;7.20;2.20;;;;;;;18.25;70.25;100083.25;1824813;78;21071;-76
2022/07/19 08:18:05;;;;;;;1.92;1.60;;;;;;;18.32;69.37;100075.77;1824672;78;21024;-77
2022/07/19 08:20:33;;;;;;;1.90;1.75;;;;;;;18.38;69.61;100076.75;1824962;78;21107;-76
2022/07/19 08:23:00;;;;;;;5.10;2.08;;;;;;;18.45;68.50;100078.58;1824667;78;21106;-77
2022/07/19 08:25:27;;;;;;;3.08;1.80;;;;;;;18.46;68.95;100075.83;1824615;78;21047;-76
2022/07/19 08:27:54;;;;;;;3.10;1.70;;;;;;;18.50;67.68;100068.03;1824636;78;21118;-77
2022/07/19 08:30:21;;;;;;;2.95;1.82;;;;;;;18.52;67.24;100067.45;1824911;78;21452;-76
2022/07/19 08:32:48;;;;;;;3.27;2.00;;;;;;;18.52;67.55;100066.12;1811894;78;21579;-77
2022/07/19 08:35:15;;;;;;;2.42;1.90;;;;;;;18.56;67.90;100066.34;1805040;78;21137;-77
2022/07/19 08:37:42;;;;;;;3.30;1.62;;;;;;;18.64;68.03;100067.69;1805235;78;21575;-77
2022/07/19 08:40:09;;;;;;;8.53;1.95;;;;;;;18.72;67.75;100065.43;1804949;79;21092;-75
2022/07/19 08:42:38;;;;;;;5.33;1.90;;;;;;;18.82;67.51;100065.26;1807021;78;21085;-77
2022/07/19 08:45:08;;;;;;;8.98;1.95;;;;;;;18.88;66.81;100062.75;1804893;79;21464;-76
2022/07/19 08:47:36;;;;;;;2.83;1.70;;;;;;;18.89;67.27;100055.96;1805310;79;21025;-77
2022/07/19 08:50:07;;;;;;;4.95;1.50;;;;;;;18.92;67.62;100057.59;1804983;79;21040;-76
2022/07/19 08:52:35;;;;;;;2.85;1.67;;;;;;;19.03;67.63;100062.27;1804635;79;21106;-77
2022/07/19 08:55:03;;;;;;;2.77;1.70;;;;;;;19.15;67.29;100054.87;1804929;79;21063;-76
2022/07/19 09:00:15;;;;;;;3.58;2.05;;;;;;;19.31;66.51;100058.27;1805218;79;27363;-77
2022/07/19 09:02:56;;;;;;;3.25;2.10;;;;;;;19.31;66.37;100054.27;1804813;79;21054;-77
2022/07/19 09:05:23;;;;;;;11.00;1.87;;;;;;;19.29;66.23;100051.33;1803497;79;21520;-77
2022/07/19 09:08:14;;;;;;;3.67;2.02;;;;;;;19.20;66.58;100047.44;1805053;79;22015;-77
2022/07/19 09:11:14;;;;;;;7.17;1.70;;;;;;;19.16;66.77;100057.05;1804963;79;21046;-76
2022/07/19 09:13:15;;;;;;;4.33;1.80;;;;;;;19.07;67.15;100062.48;1801109;79;21130;-76
2022/07/19 09:15:52;;;;;;;2.72;1.70;;;;;;;19.00;66.86;100061.14;1805203;79;20987;-76
2022/07/19 09:18:24;;;;;;;3.75;1.70;;;;;;;18.91;67.27;100072.75;1804883;79;21070;-76
2022/07/19 09:21:01;;;;;;;2.42;1.62;;;;;;;18.78;67.19;100058.41;1805152;79;21094;-76
2022/07/19 09:23:28;;;;;;;4.40;2.30;;;;;;;18.68;67.60;100063.91;1808243;79;21106;-76
2022/07/19 09:25:59;;;;;;;2.12;1.50;;;;;;;18.60;68.68;100071.50;1808722;79;21091;-76
2022/07/19 09:28:28;;;;;;;2.92;1.90;;;;;;;18.51;70.60;100076.91;1808247;79;21551;-77
2022/07/19 09:30:56;;;;;;;2.15;1.72;;;;;;;18.42;72.97;100076.94;1808574;79;21509;-76
2022/07/19 09:33:29;;;;;;;3.92;2.12;;;;;;;18.30;74.37;100069.67;1802554;79;21015;-76
2022/07/19 09:36:02;;;;;;;4.25;2.10;;;;;;;18.21;75.37;100072.40;1800957;79;21036;-76
2022/07/19 09:38:33;;;;;;;3.25;2.70;;;;;;;18.12;76.49;100075.13;1801030;79;22071;-76
2022/07/19 09:41:16;;;;;;;4.05;2.02;;;;;;;18.00;77.61;100057.16;1799995;79;21094;-77
2022/07/19 09:44:05;;;;;;;10.65;2.30;;;;;;;17.93;78.40;100059.80;1801259;79;21067;-77
2022/07/19 09:46:36;;;;;;;4.85;2.25;;;;;;;17.90;79.43;100054.16;1800955;79;21197;-77
2022/07/19 09:49:15;;;;;;;2.35;1.90;;;;;;;17.96;80.67;100056.96;1801235;79;21039;-77
2022/07/19 09:51:49;;;;;;;3.27;2.65;;;;;;;18.06;80.59;100058.16;1800930;79;21586;-76
2022/07/19 09:54:19;;;;;;;2.62;2.08;;;;;;;18.16;80.15;100058.00;1801094;79;21950;-77
2022/07/19 09:56:48;;;;;;;3.52;2.52;;;;;;;18.23;80.46;100052.34;1801006;79;21054;-76
2022/07/19 09:59:15;;;;;;;3.25;2.20;;;;;;;18.32;80.54;100046.45;1801224;79;21067;-77
2022/07/19 10:01:42;;;;;;;3.52;2.02;;;;;;;18.47;81.01;100036.23;1801140;79;21067;-76
2022/07/19 10:04:14;;;;;;;3.15;2.58;;;;;;;18.71;80.14;100034.38;1801143;79;21805;-77
2022/07/19 10:06:42;;;;;;;3.25;1.87;;;;;;;18.99;79.35;100038.09;1801210;79;21056;-77
2022/07/19 10:09:11;;;;;;;1.82;1.40;;;;;;;19.23;78.28;100037.91;1801048;79;21555;-77
2022/07/19 10:11:38;;;;;;;2.77;1.40;;;;;;;19.54;76.36;100037.30;1801232;79;21099;-77
2022/07/19 10:14:05;;;;;;;2.70;1.45;;;;;;;19.83;74.42;100037.27;1801119;79;21586;-77
2022/07/19 10:17:04;;;;;;;3.45;1.65;;;;;;;20.02;74.27;100022.23;1801558;79;21087;-77
2022/07/19 10:19:46;;;;;;;2.25;1.42;;;;;;;20.23;70.81;100027.98;1800949;79;21289;-76
2022/07/19 10:22:15;;;;;;;1.72;1.20;;;;;;;20.32;68.13;100021.16;1800930;79;21079;-76
2022/07/19 10:24:54;;;;;;;2.50;1.30;;;;;;;20.27;68.98;100016.11;1801090;79;21551;-77
2022/07/19 10:27:29;;;;;;;1.87;1.25;;;;;;;20.32;69.66;100009.13;1801258;79;21043;-76
2022/07/19 10:30:15;;;;;;;2.70;1.40;;;;;;;20.47;69.95;100008.09;1801050;79;21847;-77
2022/07/19 10:32:44;;;;;;;6.08;1.55;;;;;;;20.68;70.10;100001.80;1800739;78;20963;-77
2022/07/19 10:35:27;;;;;;;1.72;1.10;;;;;;;20.89;66.72;100009.29;1801252;79;21114;-77
2022/07/19 10:38:02;;;;;;;0.85;0.78;;;;;;;20.90;65.77;99998.48;1801637;79;21162;-77
2022/07/19 10:40:45;;;;;;;2.27;0.95;;;;;;;20.92;63.09;99997.04;1790555;79;21594;-77
2022/07/19 10:43:16;;;;;;;1.57;1.40;;;;;;;20.94;64.13;99990.60;1801122;79;21875;-77
2022/07/19 10:46:00;;;;;;;1.70;1.22;;;;;;;21.14;65.54;99988.34;1800429;79;21952;-76
2022/07/19 10:48:39;;;;;;;4.67;1.57;;;;;;;21.28;64.38;99989.57;1802303;77;21098;-75
2022/07/19 10:51:11;;;;;;;6.33;1.85;;;;;;;21.30;63.96;99982.73;1843714;77;21050;-77
2022/07/19 10:53:44;;;;;;;2.25;1.30;;;;;;;21.27;63.39;99973.62;1847825;77;21034;-77
2022/07/19 10:56:21;;;;;;;1.50;1.40;;;;;;;21.15;61.76;99978.87;1847428;77;21231;-76
2022/07/19 10:58:52;;;;;;;4.90;1.62;;;;;;;20.94;61.85;99979.06;1772582;80;21059;-77
2022/07/19 11:01:20;;;;;;;1.67;1.50;;;;;;;20.74;63.16;99981.79;1787666;80;21026;-77
2022/07/19 11:03:47;;;;;;;3.50;1.70;;;;;;;20.60;63.26;99984.06;1772666;80;21106;-76
2022/07/19 11:06:27;;;;;;;3.75;1.65;;;;;;;20.45;64.53;99980.62;1787960;80;21818;-77
2022/07/19 11:08:57;;;;;;;2.83;1.62;;;;;;;20.38;65.30;99984.19;1787519;80;22754;-76
2022/07/19 11:11:26;;;;;;;5.35;1.90;;;;;;;20.37;65.80;99982.46;1772468;80;20982;-76
2022/07/19 11:13:57;;;;;;;1.87;1.72;;;;;;;20.38;65.28;99980.17;1787685;80;21637;-76
2022/07/19 11:16:26;;;;;;;2.15;1.85;;;;;;;20.38;65.75;99979.33;1846552;77;21471;-77
2022/07/19 11:19:04;;;;;;;3.52;1.92;;;;;;;20.44;65.21;99980.72;1772906;80;21059;-77
2022/07/19 11:21:33;;;;;;;3.40;1.67;;;;;;;20.53;65.29;99978.77;1788024;80;21153;-77
2022/07/19 11:24:01;;;;;;;3.27;1.65;;;;;;;20.71;65.71;99968.17;1787173;80;20992;-77
2022/07/19 11:26:37;;;;;;;2.72;1.65;;;;;;;20.92;64.49;99971.14;1754134;80;21142;-77
2022/07/19 11:29:05;;;;;;;4.50;1.87;;;;;;;21.03;63.51;99957.02;1706618;82;21642;-77
2022/07/19 11:31:32;;;;;;;2.30;1.67;;;;;;;21.08;63.74;99961.56;1729233;83;21020;-77
2022/07/19 11:34:00;;;;;;;1.72;1.50;;;;;;;21.13;62.04;99962.09;1750569;81;21115;-77
2022/07/19 11:36:27;;;;;;;2.22;1.52;;;;;;;21.08;62.43;99954.87;1758929;80;21012;-77